sensor_id;sensor_type;location;lat;lon;timestamp;P1;durP1;ratioP1;P2;durP2;ratioP2
60610;SDS011;46439;51.164;13.572;2023-03-21T00:00:20;17.60;;;10.90;;
60610;SDS011;46439;51.164;13.572;2023-03-21T00:02:49;16.60;;;11.10;;
60610;SDS011;46439;51.164;13.572;2023-03-21T00:05:18;16.60;;;11.60;;
60610;SDS011;46439;51.164;13.572;2023-03-21T00:07:46;18.90;;;11.80;;
60610;SDS011;46439;51.164;13.572;2023-03-21T00:10:15;17.80;;;11.10;;
60610;SDS011;46439;51.164;13.572;2023-03-21T00:12:44;17.20;;;11.20;;
60610;SDS011;46439;51.164;13.572;2023-03-21T00:15:15;18.90;;;12.20;;
60610;SDS011;46439;51.164;13.572;2023-03-21T00:17:44;18.10;;;11.50;;
60610;SDS011;46439;51.164;13.572;2023-03-21T00:20:17;19.00;;;12.10;;
60610;SDS011;46439;51.164;13.572;2023-03-21T00:23:06;19.20;;;13.50;;
60610;SDS011;46439;51.164;13.572;2023-03-21T00:25:55;21.90;;;13.50;;
60610;SDS011;46439;51.164;13.572;2023-03-21T00:28:24;19.40;;;13.30;;
60610;SDS011;46439;51.164;13.572;2023-03-21T00:30:57;20.20;;;13.70;;
60610;SDS011;46439;51.164;13.572;2023-03-21T00:33:26;21.30;;;14.30;;
60610;SDS011;46439;51.164;13.572;2023-03-21T00:35:55;19.80;;;14.10;;
60610;SDS011;46439;51.164;13.572;2023-03-21T00:38:24;19.40;;;13.60;;
60610;SDS011;46439;51.164;13.572;2023-03-21T00:40:53;22.70;;;14.60;;
60610;SDS011;46439;51.164;13.572;2023-03-21T00:43:21;22.00;;;14.40;;
60610;SDS011;46439;51.164;13.572;2023-03-21T00:45:55;21.50;;;14.10;;
60610;SDS011;46439;51.164;13.572;2023-03-21T00:48:25;24.70;;;14.10;;
60610;SDS011;46439;51.164;13.572;2023-03-21T00:50:55;22.30;;;14.90;;
60610;SDS011;46439;51.164;13.572;2023-03-21T00:53:27;21.30;;;14.50;;
60610;SDS011;46439;51.164;13.572;2023-03-21T00:55:57;22.30;;;14.10;;
60610;SDS011;46439;51.164;13.572;2023-03-21T00:58:25;20.10;;;14.80;;
60610;SDS011;46439;51.164;13.572;2023-03-21T01:00:54;20.40;;;13.20;;
60610;SDS011;46439;51.164;13.572;2023-03-21T01:03:23;20.60;;;14.60;;
60610;SDS011;46439;51.164;13.572;2023-03-21T01:05:52;18.40;;;13.20;;
60610;SDS011;46439;51.164;13.572;2023-03-21T01:08:35;19.00;;;12.80;;
60610;SDS011;46439;51.164;13.572;2023-03-21T01:11:05;20.50;;;13.70;;
60610;SDS011;46439;51.164;13.572;2023-03-21T01:16:05;19.70;;;13.10;;
60610;SDS011;46439;51.164;13.572;2023-03-21T01:18:36;23.00;;;13.80;;
60610;SDS011;46439;51.164;13.572;2023-03-21T01:21:08;22.00;;;14.00;;
60610;SDS011;46439;51.164;13.572;2023-03-21T01:23:38;23.70;;;15.30;;
60610;SDS011;46439;51.164;13.572;2023-03-21T01:26:09;19.40;;;13.00;;
60610;SDS011;46439;51.164;13.572;2023-03-21T01:28:39;20.20;;;13.90;;
60610;SDS011;46439;51.164;13.572;2023-03-21T01:31:09;21.10;;;14.60;;
60610;SDS011;46439;51.164;13.572;2023-03-21T01:33:39;19.10;;;13.60;;
60610;SDS011;46439;51.164;13.572;2023-03-21T01:36:09;20.50;;;15.00;;
60610;SDS011;46439;51.164;13.572;2023-03-21T01:38:42;20.80;;;14.80;;
60610;SDS011;46439;51.164;13.572;2023-03-21T01:41:13;19.70;;;14.20;;
60610;SDS011;46439;51.164;13.572;2023-03-21T01:43:47;23.80;;;15.00;;
60610;SDS011;46439;51.164;13.572;2023-03-21T01:49:05;25.80;;;16.00;;
60610;SDS011;46439;51.164;13.572;2023-03-21T01:51:39;21.10;;;14.30;;
60610;SDS011;46439;51.164;13.572;2023-03-21T01:54:13;22.90;;;16.00;;
60610;SDS011;46439;51.164;13.572;2023-03-21T01:56:44;20.10;;;15.30;;
60610;SDS011;46439;51.164;13.572;2023-03-21T01:59:15;22.40;;;14.50;;
60610;SDS011;46439;51.164;13.572;2023-03-21T02:01:49;39.00;;;26.90;;
60610;SDS011;46439;51.164;13.572;2023-03-21T02:04:18;45.70;;;29.00;;
60610;SDS011;46439;51.164;13.572;2023-03-21T02:06:55;26.50;;;18.00;;
60610;SDS011;46439;51.164;13.572;2023-03-21T02:09:29;27.20;;;17.30;;
60610;SDS011;46439;51.164;13.572;2023-03-21T02:12:00;22.40;;;16.20;;
60610;SDS011;46439;51.164;13.572;2023-03-21T02:14:30;25.30;;;17.90;;
60610;SDS011;46439;51.164;13.572;2023-03-21T02:17:03;21.90;;;16.10;;
60610;SDS011;46439;51.164;13.572;2023-03-21T02:26:07;24.20;;;16.50;;
60610;SDS011;46439;51.164;13.572;2023-03-21T02:28:56;22.30;;;17.30;;
60610;SDS011;46439;51.164;13.572;2023-03-21T02:31:40;24.80;;;18.00;;
60610;SDS011;46439;51.164;13.572;2023-03-21T02:34:26;28.40;;;20.20;;
60610;SDS011;46439;51.164;13.572;2023-03-21T02:37:17;24.50;;;17.60;;
60610;SDS011;46439;51.164;13.572;2023-03-21T02:39:52;24.50;;;18.60;;
60610;SDS011;46439;51.164;13.572;2023-03-21T02:42:34;22.40;;;17.70;;
60610;SDS011;46439;51.164;13.572;2023-03-21T02:45:12;24.30;;;17.90;;
60610;SDS011;46439;51.164;13.572;2023-03-21T02:47:45;22.00;;;16.40;;
60610;SDS011;46439;51.164;13.572;2023-03-21T02:50:18;25.90;;;17.30;;
60610;SDS011;46439;51.164;13.572;2023-03-21T02:52:52;25.80;;;19.30;;
60610;SDS011;46439;51.164;13.572;2023-03-21T02:55:23;28.10;;;19.80;;
60610;SDS011;46439;51.164;13.572;2023-03-21T02:57:55;27.20;;;18.20;;
60610;SDS011;46439;51.164;13.572;2023-03-21T03:00:25;22.60;;;17.70;;
60610;SDS011;46439;51.164;13.572;2023-03-21T03:02:56;26.60;;;17.60;;
60610;SDS011;46439;51.164;13.572;2023-03-21T03:05:25;23.90;;;17.10;;
60610;SDS011;46439;51.164;13.572;2023-03-21T03:07:58;25.50;;;17.40;;
60610;SDS011;46439;51.164;13.572;2023-03-21T03:10:45;24.90;;;18.60;;
60610;SDS011;46439;51.164;13.572;2023-03-21T03:13:29;27.70;;;18.50;;
60610;SDS011;46439;51.164;13.572;2023-03-21T03:16:14;22.50;;;17.10;;
60610;SDS011;46439;51.164;13.572;2023-03-21T03:18:52;22.80;;;17.40;;
60610;SDS011;46439;51.164;13.572;2023-03-21T03:21:24;22.70;;;17.50;;
60610;SDS011;46439;51.164;13.572;2023-03-21T03:23:58;22.90;;;16.70;;
60610;SDS011;46439;51.164;13.572;2023-03-21T03:26:33;24.90;;;18.10;;
60610;SDS011;46439;51.164;13.572;2023-03-21T03:29:06;24.90;;;17.70;;
60610;SDS011;46439;51.164;13.572;2023-03-21T03:31:38;23.20;;;18.00;;
60610;SDS011;46439;51.164;13.572;2023-03-21T03:34:11;23.20;;;18.70;;
60610;SDS011;46439;51.164;13.572;2023-03-21T03:36:43;24.30;;;17.60;;
60610;SDS011;46439;51.164;13.572;2023-03-21T03:39:17;22.90;;;18.00;;
60610;SDS011;46439;51.164;13.572;2023-03-21T03:41:48;25.30;;;18.30;;
60610;SDS011;46439;51.164;13.572;2023-03-21T03:44:20;24.80;;;19.00;;
60610;SDS011;46439;51.164;13.572;2023-03-21T03:46:50;25.20;;;19.20;;
60610;SDS011;46439;51.164;13.572;2023-03-21T03:49:24;22.10;;;17.80;;
60610;SDS011;46439;51.164;13.572;2023-03-21T03:51:56;24.60;;;18.80;;
60610;SDS011;46439;51.164;13.572;2023-03-21T03:54:30;24.40;;;17.60;;
60610;SDS011;46439;51.164;13.572;2023-03-21T03:57:02;26.00;;;18.40;;
60610;SDS011;46439;51.164;13.572;2023-03-21T03:59:34;23.70;;;17.60;;
60610;SDS011;46439;51.164;13.572;2023-03-21T04:02:04;23.90;;;17.20;;
60610;SDS011;46439;51.164;13.572;2023-03-21T04:04:33;24.60;;;17.90;;
60610;SDS011;46439;51.164;13.572;2023-03-21T04:07:02;26.40;;;19.00;;
60610;SDS011;46439;51.164;13.572;2023-03-21T04:09:32;24.30;;;18.20;;
60610;SDS011;46439;51.164;13.572;2023-03-21T04:12:00;26.00;;;18.30;;
60610;SDS011;46439;51.164;13.572;2023-03-21T04:14:29;24.20;;;18.40;;
60610;SDS011;46439;51.164;13.572;2023-03-21T04:16:58;25.20;;;18.40;;
60610;SDS011;46439;51.164;13.572;2023-03-21T04:19:27;24.40;;;17.80;;
60610;SDS011;46439;51.164;13.572;2023-03-21T04:21:55;25.60;;;18.40;;
60610;SDS011;46439;51.164;13.572;2023-03-21T04:24:24;26.30;;;19.20;;
60610;SDS011;46439;51.164;13.572;2023-03-21T04:26:53;23.70;;;18.80;;
60610;SDS011;46439;51.164;13.572;2023-03-21T04:29:22;25.70;;;19.30;;
60610;SDS011;46439;51.164;13.572;2023-03-21T04:31:51;25.10;;;18.80;;
60610;SDS011;46439;51.164;13.572;2023-03-21T04:34:19;27.00;;;19.10;;
60610;SDS011;46439;51.164;13.572;2023-03-21T04:36:49;26.60;;;19.20;;
60610;SDS011;46439;51.164;13.572;2023-03-21T04:39:19;27.10;;;19.50;;
60610;SDS011;46439;51.164;13.572;2023-03-21T04:41:50;27.60;;;21.00;;
60610;SDS011;46439;51.164;13.572;2023-03-21T04:44:19;26.20;;;19.00;;
60610;SDS011;46439;51.164;13.572;2023-03-21T04:46:48;25.60;;;19.80;;
60610;SDS011;46439;51.164;13.572;2023-03-21T04:49:17;26.40;;;19.40;;
60610;SDS011;46439;51.164;13.572;2023-03-21T04:51:46;25.10;;;20.10;;
60610;SDS011;46439;51.164;13.572;2023-03-21T04:54:15;26.70;;;19.80;;
60610;SDS011;46439;51.164;13.572;2023-03-21T04:56:44;28.30;;;19.80;;
60610;SDS011;46439;51.164;13.572;2023-03-21T04:59:14;28.10;;;19.90;;
60610;SDS011;46439;51.164;13.572;2023-03-21T05:01:44;26.50;;;19.40;;
60610;SDS011;46439;51.164;13.572;2023-03-21T05:04:13;28.00;;;20.30;;
60610;SDS011;46439;51.164;13.572;2023-03-21T05:06:43;26.10;;;19.00;;
60610;SDS011;46439;51.164;13.572;2023-03-21T05:09:13;25.80;;;19.10;;
60610;SDS011;46439;51.164;13.572;2023-03-21T05:11:42;29.60;;;19.70;;
60610;SDS011;46439;51.164;13.572;2023-03-21T05:14:13;27.80;;;20.50;;
60610;SDS011;46439;51.164;13.572;2023-03-21T05:16:44;25.30;;;18.90;;
60610;SDS011;46439;51.164;13.572;2023-03-21T05:19:19;25.70;;;18.30;;
60610;SDS011;46439;51.164;13.572;2023-03-21T05:21:50;22.60;;;16.90;;
60610;SDS011;46439;51.164;13.572;2023-03-21T05:24:20;23.30;;;16.40;;
60610;SDS011;46439;51.164;13.572;2023-03-21T05:26:50;23.80;;;18.80;;
60610;SDS011;46439;51.164;13.572;2023-03-21T05:29:22;23.90;;;18.40;;
60610;SDS011;46439;51.164;13.572;2023-03-21T05:31:57;31.50;;;19.00;;
60610;SDS011;46439;51.164;13.572;2023-03-21T05:34:58;24.70;;;16.20;;
60610;SDS011;46439;51.164;13.572;2023-03-21T05:37:28;23.40;;;16.60;;
60610;SDS011;46439;51.164;13.572;2023-03-21T05:39:58;31.60;;;18.80;;
60610;SDS011;46439;51.164;13.572;2023-03-21T05:42:28;26.40;;;16.20;;
60610;SDS011;46439;51.164;13.572;2023-03-21T05:44:59;35.00;;;18.20;;
60610;SDS011;46439;51.164;13.572;2023-03-21T05:47:28;21.90;;;12.40;;
60610;SDS011;46439;51.164;13.572;2023-03-21T05:49:58;24.70;;;13.10;;
60610;SDS011;46439;51.164;13.572;2023-03-21T05:52:28;18.50;;;10.60;;
60610;SDS011;46439;51.164;13.572;2023-03-21T05:54:58;17.50;;;10.40;;
60610;SDS011;46439;51.164;13.572;2023-03-21T05:57:27;14.30;;;7.80;;
60610;SDS011;46439;51.164;13.572;2023-03-21T06:00:01;10.50;;;8.00;;
60610;SDS011;46439;51.164;13.572;2023-03-21T06:02:31;11.50;;;6.70;;
60610;SDS011;46439;51.164;13.572;2023-03-21T06:04:59;11.40;;;7.20;;
60610;SDS011;46439;51.164;13.572;2023-03-21T06:07:29;12.30;;;8.20;;
60610;SDS011;46439;51.164;13.572;2023-03-21T06:09:58;12.30;;;7.00;;
60610;SDS011;46439;51.164;13.572;2023-03-21T06:12:28;11.70;;;7.30;;
60610;SDS011;46439;51.164;13.572;2023-03-21T06:14:57;14.70;;;8.10;;
60610;SDS011;46439;51.164;13.572;2023-03-21T06:17:27;12.40;;;8.20;;
60610;SDS011;46439;51.164;13.572;2023-03-21T06:19:57;11.40;;;7.40;;
60610;SDS011;46439;51.164;13.572;2023-03-21T06:22:30;12.50;;;8.40;;
60610;SDS011;46439;51.164;13.572;2023-03-21T06:25:01;11.70;;;7.10;;
60610;SDS011;46439;51.164;13.572;2023-03-21T06:27:33;11.10;;;6.10;;
60610;SDS011;46439;51.164;13.572;2023-03-21T06:30:04;10.80;;;6.50;;
60610;SDS011;46439;51.164;13.572;2023-03-21T06:32:34;8.50;;;6.20;;
60610;SDS011;46439;51.164;13.572;2023-03-21T06:35:04;11.00;;;6.50;;
60610;SDS011;46439;51.164;13.572;2023-03-21T06:37:34;8.50;;;6.00;;
60610;SDS011;46439;51.164;13.572;2023-03-21T06:40:04;12.20;;;6.70;;
60610;SDS011;46439;51.164;13.572;2023-03-21T06:42:35;9.90;;;6.50;;
60610;SDS011;46439;51.164;13.572;2023-03-21T06:45:05;9.50;;;6.60;;
60610;SDS011;46439;51.164;13.572;2023-03-21T06:47:35;12.00;;;6.40;;
60610;SDS011;46439;51.164;13.572;2023-03-21T06:50:05;11.80;;;6.40;;
60610;SDS011;46439;51.164;13.572;2023-03-21T06:52:35;12.40;;;6.40;;
60610;SDS011;46439;51.164;13.572;2023-03-21T06:55:04;10.30;;;6.00;;
60610;SDS011;46439;51.164;13.572;2023-03-21T06:57:35;10.70;;;6.60;;
60610;SDS011;46439;51.164;13.572;2023-03-21T07:00:05;11.70;;;7.00;;
60610;SDS011;46439;51.164;13.572;2023-03-21T07:02:35;11.00;;;6.40;;
60610;SDS011;46439;51.164;13.572;2023-03-21T07:05:05;12.80;;;6.90;;
60610;SDS011;46439;51.164;13.572;2023-03-21T07:07:35;11.80;;;6.50;;
60610;SDS011;46439;51.164;13.572;2023-03-21T07:10:04;12.70;;;7.40;;
60610;SDS011;46439;51.164;13.572;2023-03-21T07:12:37;11.70;;;6.80;;
60610;SDS011;46439;51.164;13.572;2023-03-21T07:15:07;11.70;;;7.00;;
60610;SDS011;46439;51.164;13.572;2023-03-21T07:17:37;10.70;;;6.60;;
60610;SDS011;46439;51.164;13.572;2023-03-21T07:20:07;10.30;;;4.80;;
60610;SDS011;46439;51.164;13.572;2023-03-21T07:22:38;11.00;;;7.10;;
60610;SDS011;46439;51.164;13.572;2023-03-21T07:25:08;11.10;;;6.20;;
60610;SDS011;46439;51.164;13.572;2023-03-21T07:27:37;8.60;;;5.30;;
60610;SDS011;46439;51.164;13.572;2023-03-21T07:30:09;13.80;;;5.90;;
60610;SDS011;46439;51.164;13.572;2023-03-21T07:32:39;12.00;;;7.00;;
60610;SDS011;46439;51.164;13.572;2023-03-21T07:35:09;11.40;;;6.80;;
60610;SDS011;46439;51.164;13.572;2023-03-21T07:37:40;11.40;;;6.70;;
60610;SDS011;46439;51.164;13.572;2023-03-21T07:40:10;11.70;;;7.00;;
60610;SDS011;46439;51.164;13.572;2023-03-21T07:42:39;9.80;;;6.60;;
60610;SDS011;46439;51.164;13.572;2023-03-21T07:45:10;16.60;;;8.60;;
60610;SDS011;46439;51.164;13.572;2023-03-21T07:47:44;13.20;;;7.50;;
60610;SDS011;46439;51.164;13.572;2023-03-21T07:50:13;12.80;;;6.70;;
60610;SDS011;46439;51.164;13.572;2023-03-21T07:52:42;12.90;;;6.60;;
60610;SDS011;46439;51.164;13.572;2023-03-21T07:55:12;14.90;;;6.80;;
60610;SDS011;46439;51.164;13.572;2023-03-21T07:57:43;12.40;;;6.50;;
60610;SDS011;46439;51.164;13.572;2023-03-21T08:00:13;14.00;;;6.30;;
60610;SDS011;46439;51.164;13.572;2023-03-21T08:02:51;12.20;;;7.30;;
60610;SDS011;46439;51.164;13.572;2023-03-21T08:05:22;10.70;;;6.60;;
60610;SDS011;46439;51.164;13.572;2023-03-21T08:07:51;11.20;;;7.00;;
60610;SDS011;46439;51.164;13.572;2023-03-21T08:10:21;13.20;;;7.60;;
60610;SDS011;46439;51.164;13.572;2023-03-21T08:12:51;16.40;;;9.00;;
60610;SDS011;46439;51.164;13.572;2023-03-21T08:15:21;10.60;;;5.90;;
60610;SDS011;46439;51.164;13.572;2023-03-21T08:17:50;10.30;;;5.60;;
60610;SDS011;46439;51.164;13.572;2023-03-21T08:20:20;12.60;;;6.40;;
60610;SDS011;46439;51.164;13.572;2023-03-21T08:22:49;44.20;;;8.80;;
60610;SDS011;46439;51.164;13.572;2023-03-21T08:25:19;14.80;;;6.30;;
60610;SDS011;46439;51.164;13.572;2023-03-21T08:27:48;11.70;;;6.30;;
60610;SDS011;46439;51.164;13.572;2023-03-21T08:30:18;33.20;;;7.60;;
60610;SDS011;46439;51.164;13.572;2023-03-21T08:32:54;18.90;;;6.40;;
60610;SDS011;46439;51.164;13.572;2023-03-21T08:35:25;13.30;;;6.10;;
60610;SDS011;46439;51.164;13.572;2023-03-21T08:37:55;12.70;;;6.10;;
60610;SDS011;46439;51.164;13.572;2023-03-21T08:40:24;10.70;;;6.50;;
60610;SDS011;46439;51.164;13.572;2023-03-21T08:42:53;11.60;;;6.20;;
60610;SDS011;46439;51.164;13.572;2023-03-21T08:45:22;11.50;;;6.40;;
60610;SDS011;46439;51.164;13.572;2023-03-21T08:47:52;10.30;;;6.30;;
60610;SDS011;46439;51.164;13.572;2023-03-21T08:50:24;17.40;;;6.90;;
60610;SDS011;46439;51.164;13.572;2023-03-21T08:52:55;11.10;;;6.20;;
60610;SDS011;46439;51.164;13.572;2023-03-21T08:55:24;14.50;;;6.00;;
60610;SDS011;46439;51.164;13.572;2023-03-21T08:57:53;12.00;;;6.60;;
60610;SDS011;46439;51.164;13.572;2023-03-21T09:00:33;11.20;;;6.00;;
60610;SDS011;46439;51.164;13.572;2023-03-21T09:03:02;12.40;;;6.30;;
60610;SDS011;46439;51.164;13.572;2023-03-21T09:05:31;14.70;;;6.80;;
60610;SDS011;46439;51.164;13.572;2023-03-21T09:08:02;17.90;;;8.20;;
60610;SDS011;46439;51.164;13.572;2023-03-21T09:10:32;11.90;;;6.40;;
60610;SDS011;46439;51.164;13.572;2023-03-21T09:13:01;15.40;;;7.40;;
60610;SDS011;46439;51.164;13.572;2023-03-21T09:15:32;14.60;;;7.20;;
60610;SDS011;46439;51.164;13.572;2023-03-21T09:18:01;15.10;;;6.60;;
60610;SDS011;46439;51.164;13.572;2023-03-21T09:20:39;10.20;;;6.30;;
60610;SDS011;46439;51.164;13.572;2023-03-21T09:23:09;12.20;;;6.40;;
60610;SDS011;46439;51.164;13.572;2023-03-21T09:25:39;11.90;;;6.50;;
60610;SDS011;46439;51.164;13.572;2023-03-21T09:28:11;13.50;;;7.10;;
60610;SDS011;46439;51.164;13.572;2023-03-21T09:30:41;13.20;;;7.40;;
60610;SDS011;46439;51.164;13.572;2023-03-21T09:33:13;17.10;;;7.60;;
60610;SDS011;46439;51.164;13.572;2023-03-21T09:35:51;12.60;;;6.80;;
60610;SDS011;46439;51.164;13.572;2023-03-21T09:38:21;15.50;;;7.70;;
60610;SDS011;46439;51.164;13.572;2023-03-21T09:41:02;16.10;;;7.50;;
60610;SDS011;46439;51.164;13.572;2023-03-21T09:43:42;12.80;;;6.80;;
60610;SDS011;46439;51.164;13.572;2023-03-21T09:46:20;16.10;;;6.80;;
60610;SDS011;46439;51.164;13.572;2023-03-21T09:48:58;12.60;;;6.80;;
60610;SDS011;46439;51.164;13.572;2023-03-21T09:51:38;14.30;;;7.00;;
60610;SDS011;46439;51.164;13.572;2023-03-21T09:54:17;13.70;;;6.30;;
60610;SDS011;46439;51.164;13.572;2023-03-21T09:56:52;13.20;;;6.70;;
60610;SDS011;46439;51.164;13.572;2023-03-21T09:59:27;12.40;;;6.70;;
60610;SDS011;46439;51.164;13.572;2023-03-21T10:02:05;13.80;;;6.10;;
60610;SDS011;46439;51.164;13.572;2023-03-21T10:04:57;12.70;;;6.00;;
60610;SDS011;46439;51.164;13.572;2023-03-21T10:07:28;13.20;;;6.20;;
60610;SDS011;46439;51.164;13.572;2023-03-21T10:10:03;11.90;;;6.80;;
60610;SDS011;46439;51.164;13.572;2023-03-21T10:12:36;11.50;;;5.90;;
60610;SDS011;46439;51.164;13.572;2023-03-21T10:15:06;13.30;;;6.10;;
60610;SDS011;46439;51.164;13.572;2023-03-21T10:17:41;13.30;;;5.90;;
60610;SDS011;46439;51.164;13.572;2023-03-21T10:20:14;11.00;;;5.40;;
60610;SDS011;46439;51.164;13.572;2023-03-21T10:22:43;10.70;;;5.80;;
60610;SDS011;46439;51.164;13.572;2023-03-21T10:25:14;13.80;;;6.00;;
60610;SDS011;46439;51.164;13.572;2023-03-21T10:27:46;10.60;;;5.60;;
60610;SDS011;46439;51.164;13.572;2023-03-21T10:30:23;9.00;;;5.40;;
60610;SDS011;46439;51.164;13.572;2023-03-21T10:32:59;9.60;;;4.80;;
60610;SDS011;46439;51.164;13.572;2023-03-21T10:35:35;7.90;;;4.80;;
60610;SDS011;46439;51.164;13.572;2023-03-21T10:38:12;10.20;;;4.60;;
60610;SDS011;46439;51.164;13.572;2023-03-21T10:40:44;11.70;;;4.90;;
60610;SDS011;46439;51.164;13.572;2023-03-21T10:43:29;7.10;;;4.20;;
60610;SDS011;46439;51.164;13.572;2023-03-21T10:46:04;17.80;;;6.50;;
60610;SDS011;46439;51.164;13.572;2023-03-21T10:48:38;10.50;;;5.10;;
60610;SDS011;46439;51.164;13.572;2023-03-21T10:51:13;7.90;;;5.00;;
60610;SDS011;46439;51.164;13.572;2023-03-21T10:53:46;8.10;;;4.80;;
60610;SDS011;46439;51.164;13.572;2023-03-21T10:56:22;11.90;;;4.60;;
60610;SDS011;46439;51.164;13.572;2023-03-21T10:58:53;9.80;;;5.20;;
60610;SDS011;46439;51.164;13.572;2023-03-21T11:04:00;9.70;;;5.20;;
60610;SDS011;46439;51.164;13.572;2023-03-21T11:06:37;9.60;;;5.00;;
60610;SDS011;46439;51.164;13.572;2023-03-21T11:09:12;8.70;;;5.40;;
60610;SDS011;46439;51.164;13.572;2023-03-21T11:11:48;9.60;;;5.20;;
60610;SDS011;46439;51.164;13.572;2023-03-21T11:14:34;9.90;;;5.10;;
60610;SDS011;46439;51.164;13.572;2023-03-21T11:17:19;8.00;;;5.00;;
60610;SDS011;46439;51.164;13.572;2023-03-21T11:19:56;9.40;;;5.20;;
60610;SDS011;46439;51.164;13.572;2023-03-21T11:24:57;9.70;;;5.00;;
60610;SDS011;46439;51.164;13.572;2023-03-21T11:29:58;11.20;;;5.30;;
60610;SDS011;46439;51.164;13.572;2023-03-21T11:32:31;8.00;;;5.30;;
60610;SDS011;46439;51.164;13.572;2023-03-21T11:35:05;7.30;;;4.70;;
60610;SDS011;46439;51.164;13.572;2023-03-21T11:37:43;9.40;;;5.00;;
60610;SDS011;46439;51.164;13.572;2023-03-21T11:40:21;8.40;;;5.50;;
60610;SDS011;46439;51.164;13.572;2023-03-21T11:42:53;9.30;;;6.00;;
60610;SDS011;46439;51.164;13.572;2023-03-21T11:45:25;12.60;;;6.20;;
60610;SDS011;46439;51.164;13.572;2023-03-21T11:47:57;8.40;;;5.30;;
60610;SDS011;46439;51.164;13.572;2023-03-21T11:50:29;9.00;;;5.10;;
60610;SDS011;46439;51.164;13.572;2023-03-21T11:53:11;9.00;;;5.30;;
60610;SDS011;46439;51.164;13.572;2023-03-21T11:55:58;6.10;;;4.80;;
60610;SDS011;46439;51.164;13.572;2023-03-21T11:58:45;7.60;;;5.00;;
60610;SDS011;46439;51.164;13.572;2023-03-21T12:01:28;11.80;;;5.00;;
60610;SDS011;46439;51.164;13.572;2023-03-21T12:04:05;8.70;;;4.50;;
60610;SDS011;46439;51.164;13.572;2023-03-21T12:06:44;6.90;;;4.00;;
60610;SDS011;46439;51.164;13.572;2023-03-21T12:09:25;5.00;;;3.70;;
60610;SDS011;46439;51.164;13.572;2023-03-21T12:12:08;5.80;;;4.20;;
60610;SDS011;46439;51.164;13.572;2023-03-21T12:17:27;6.10;;;4.00;;
60610;SDS011;46439;51.164;13.572;2023-03-21T12:20:13;6.20;;;4.10;;
60610;SDS011;46439;51.164;13.572;2023-03-21T12:22:54;6.90;;;4.00;;
60610;SDS011;46439;51.164;13.572;2023-03-21T12:25:35;5.60;;;4.00;;
60610;SDS011;46439;51.164;13.572;2023-03-21T12:28:15;5.30;;;3.70;;
60610;SDS011;46439;51.164;13.572;2023-03-21T12:30:55;7.30;;;3.60;;
60610;SDS011;46439;51.164;13.572;2023-03-21T12:33:40;6.20;;;4.30;;
60610;SDS011;46439;51.164;13.572;2023-03-21T12:36:29;5.60;;;3.70;;
60610;SDS011;46439;51.164;13.572;2023-03-21T12:39:14;5.70;;;3.50;;
60610;SDS011;46439;51.164;13.572;2023-03-21T12:41:52;7.30;;;3.50;;
60610;SDS011;46439;51.164;13.572;2023-03-21T12:44:31;6.60;;;3.20;;
60610;SDS011;46439;51.164;13.572;2023-03-21T12:47:04;6.70;;;3.30;;
60610;SDS011;46439;51.164;13.572;2023-03-21T12:49:37;6.50;;;3.60;;
60610;SDS011;46439;51.164;13.572;2023-03-21T12:52:10;5.70;;;3.60;;
60610;SDS011;46439;51.164;13.572;2023-03-21T12:54:43;5.70;;;3.30;;
60610;SDS011;46439;51.164;13.572;2023-03-21T12:57:16;6.20;;;3.50;;
60610;SDS011;46439;51.164;13.572;2023-03-21T12:59:50;5.70;;;3.80;;
60610;SDS011;46439;51.164;13.572;2023-03-21T13:02:27;4.50;;;3.10;;
60610;SDS011;46439;51.164;13.572;2023-03-21T13:05:00;6.50;;;3.40;;
60610;SDS011;46439;51.164;13.572;2023-03-21T13:07:36;5.50;;;3.20;;
60610;SDS011;46439;51.164;13.572;2023-03-21T13:10:13;5.20;;;3.30;;
60610;SDS011;46439;51.164;13.572;2023-03-21T13:12:53;10.80;;;3.00;;
60610;SDS011;46439;51.164;13.572;2023-03-21T13:15:31;5.40;;;3.00;;
60610;SDS011;46439;51.164;13.572;2023-03-21T13:18:18;10.80;;;3.50;;
60610;SDS011;46439;51.164;13.572;2023-03-21T13:20:55;3.90;;;2.80;;
60610;SDS011;46439;51.164;13.572;2023-03-21T13:23:33;5.30;;;3.20;;
60610;SDS011;46439;51.164;13.572;2023-03-21T13:26:04;6.20;;;3.10;;
60610;SDS011;46439;51.164;13.572;2023-03-21T13:28:39;5.20;;;3.10;;
60610;SDS011;46439;51.164;13.572;2023-03-21T13:31:17;5.60;;;3.10;;
60610;SDS011;46439;51.164;13.572;2023-03-21T13:33:48;6.30;;;3.20;;
60610;SDS011;46439;51.164;13.572;2023-03-21T13:36:22;7.20;;;3.30;;
60610;SDS011;46439;51.164;13.572;2023-03-21T13:38:57;4.40;;;2.80;;
60610;SDS011;46439;51.164;13.572;2023-03-21T13:41:30;4.20;;;2.80;;
60610;SDS011;46439;51.164;13.572;2023-03-21T13:46:51;6.10;;;3.30;;
60610;SDS011;46439;51.164;13.572;2023-03-21T13:49:32;5.50;;;3.40;;
60610;SDS011;46439;51.164;13.572;2023-03-21T13:52:20;4.50;;;2.90;;
60610;SDS011;46439;51.164;13.572;2023-03-21T13:54:57;5.20;;;3.10;;
60610;SDS011;46439;51.164;13.572;2023-03-21T13:57:46;4.70;;;2.80;;
60610;SDS011;46439;51.164;13.572;2023-03-21T14:00:26;3.80;;;2.90;;
60610;SDS011;46439;51.164;13.572;2023-03-21T14:02:57;5.10;;;3.20;;
60610;SDS011;46439;51.164;13.572;2023-03-21T14:05:34;7.30;;;3.10;;
60610;SDS011;46439;51.164;13.572;2023-03-21T14:08:05;5.50;;;2.70;;
60610;SDS011;46439;51.164;13.572;2023-03-21T14:10:42;4.20;;;2.90;;
60610;SDS011;46439;51.164;13.572;2023-03-21T14:13:16;5.50;;;3.30;;
60610;SDS011;46439;51.164;13.572;2023-03-21T14:15:49;8.30;;;3.70;;
60610;SDS011;46439;51.164;13.572;2023-03-21T14:18:22;10.00;;;3.30;;
60610;SDS011;46439;51.164;13.572;2023-03-21T14:20:53;4.70;;;3.00;;
60610;SDS011;46439;51.164;13.572;2023-03-21T14:23:24;5.80;;;3.20;;
60610;SDS011;46439;51.164;13.572;2023-03-21T14:25:54;4.10;;;2.50;;
60610;SDS011;46439;51.164;13.572;2023-03-21T14:28:25;4.90;;;2.50;;
60610;SDS011;46439;51.164;13.572;2023-03-21T14:30:58;9.70;;;3.00;;
60610;SDS011;46439;51.164;13.572;2023-03-21T14:33:30;4.30;;;2.70;;
60610;SDS011;46439;51.164;13.572;2023-03-21T14:36:04;4.50;;;2.70;;
60610;SDS011;46439;51.164;13.572;2023-03-21T14:38:39;12.50;;;3.10;;
60610;SDS011;46439;51.164;13.572;2023-03-21T14:41:20;6.10;;;3.10;;
60610;SDS011;46439;51.164;13.572;2023-03-21T14:46:52;4.60;;;3.00;;
60610;SDS011;46439;51.164;13.572;2023-03-21T14:49:28;5.30;;;2.90;;
60610;SDS011;46439;51.164;13.572;2023-03-21T14:54:27;7.30;;;2.60;;
60610;SDS011;46439;51.164;13.572;2023-03-21T14:56:59;8.90;;;2.90;;
60610;SDS011;46439;51.164;13.572;2023-03-21T14:59:32;6.50;;;2.90;;
60610;SDS011;46439;51.164;13.572;2023-03-21T15:02:12;6.90;;;2.80;;
60610;SDS011;46439;51.164;13.572;2023-03-21T15:04:44;8.40;;;2.90;;
60610;SDS011;46439;51.164;13.572;2023-03-21T15:07:23;6.60;;;2.70;;
60610;SDS011;46439;51.164;13.572;2023-03-21T15:09:55;3.50;;;2.50;;
60610;SDS011;46439;51.164;13.572;2023-03-21T15:12:26;5.20;;;2.80;;
60610;SDS011;46439;51.164;13.572;2023-03-21T15:14:56;5.00;;;2.70;;
60610;SDS011;46439;51.164;13.572;2023-03-21T15:17:27;4.10;;;2.50;;
60610;SDS011;46439;51.164;13.572;2023-03-21T15:20:00;4.00;;;2.50;;
60610;SDS011;46439;51.164;13.572;2023-03-21T15:22:32;8.00;;;2.90;;
60610;SDS011;46439;51.164;13.572;2023-03-21T15:25:07;4.20;;;2.70;;